Terminal Aerodrome Forecast
Issued by NWS

Home | Current Version | Previous Version | Text Only | Print | Product List | Glossary Off
Versions: 1 2 3 4 5 6 7 8 9 10 11 12 13 14 15 16 17 18 19

804
FTUS43 KMPX 150925 AAA
TAFRNH
TAF AMD
KRNH 150925Z 1509/1606 29008KT P6SM SCT025 OVC040
     FM151300 29005KT P6SM OVC025
     FM151800 27004KT P6SM OVC025
     FM152300 18004KT 6SM -SN OVC025
     FM160200 11004KT 2SM -SN OVC020=

USA.gov is the U.S. government's official web portal to all federal, state and local government web resources and services.